sensor_id;sensor_type;location;lat;lon;timestamp;P1;durP1;ratioP1;P2;durP2;ratioP2
71836;SDS011;59686;51.716;7.016;2024-01-15T00:01:07;17.83;;;12.63;;
71836;SDS011;59686;51.716;7.016;2024-01-15T00:03:33;18.73;;;12.67;;
71836;SDS011;59686;51.716;7.016;2024-01-15T00:05:58;17.07;;;11.50;;
71836;SDS011;59686;51.716;7.016;2024-01-15T00:08:29;18.17;;;11.87;;
71836;SDS011;59686;51.716;7.016;2024-01-15T00:10:55;20.67;;;13.33;;
71836;SDS011;59686;51.716;7.016;2024-01-15T00:13:20;18.27;;;12.73;;
71836;SDS011;59686;51.716;7.016;2024-01-15T00:15:46;20.97;;;13.13;;
71836;SDS011;59686;51.716;7.016;2024-01-15T00:18:12;19.43;;;12.53;;
71836;SDS011;59686;51.716;7.016;2024-01-15T00:20:45;19.03;;;12.33;;
71836;SDS011;59686;51.716;7.016;2024-01-15T00:23:10;19.77;;;12.53;;
71836;SDS011;59686;51.716;7.016;2024-01-15T00:25:36;19.93;;;12.27;;
71836;SDS011;59686;51.716;7.016;2024-01-15T00:28:02;21.17;;;12.83;;
71836;SDS011;59686;51.716;7.016;2024-01-15T00:30:28;18.83;;;12.53;;
71836;SDS011;59686;51.716;7.016;2024-01-15T00:32:53;19.20;;;12.10;;
71836;SDS011;59686;51.716;7.016;2024-01-15T00:35:19;19.20;;;12.17;;
71836;SDS011;59686;51.716;7.016;2024-01-15T00:37:49;19.17;;;12.30;;
71836;SDS011;59686;51.716;7.016;2024-01-15T00:40:14;20.20;;;12.00;;
71836;SDS011;59686;51.716;7.016;2024-01-15T00:42:40;20.33;;;12.17;;
71836;SDS011;59686;51.716;7.016;2024-01-15T00:45:06;17.67;;;12.70;;
71836;SDS011;59686;51.716;7.016;2024-01-15T00:47:33;25.43;;;13.17;;
71836;SDS011;59686;51.716;7.016;2024-01-15T00:49:59;21.97;;;12.47;;
71836;SDS011;59686;51.716;7.016;2024-01-15T00:52:33;23.83;;;12.90;;
71836;SDS011;59686;51.716;7.016;2024-01-15T00:54:59;22.13;;;12.10;;
71836;SDS011;59686;51.716;7.016;2024-01-15T00:57:25;20.27;;;13.13;;
71836;SDS011;59686;51.716;7.016;2024-01-15T00:59:50;21.47;;;13.13;;
71836;SDS011;59686;51.716;7.016;2024-01-15T01:02:16;20.30;;;12.53;;
71836;SDS011;59686;51.716;7.016;2024-01-15T01:04:42;18.77;;;12.33;;
71836;SDS011;59686;51.716;7.016;2024-01-15T01:07:07;19.67;;;12.40;;
71836;SDS011;59686;51.716;7.016;2024-01-15T01:09:33;20.13;;;12.63;;
71836;SDS011;59686;51.716;7.016;2024-01-15T01:11:59;21.23;;;12.57;;
71836;SDS011;59686;51.716;7.016;2024-01-15T01:14:25;21.73;;;13.20;;
71836;SDS011;59686;51.716;7.016;2024-01-15T01:19:20;22.20;;;13.10;;
71836;SDS011;59686;51.716;7.016;2024-01-15T01:21:45;21.67;;;12.00;;
71836;SDS011;59686;51.716;7.016;2024-01-15T01:24:11;19.60;;;12.13;;
71836;SDS011;59686;51.716;7.016;2024-01-15T01:26:37;22.30;;;12.10;;
71836;SDS011;59686;51.716;7.016;2024-01-15T01:29:02;18.60;;;11.67;;
71836;SDS011;59686;51.716;7.016;2024-01-15T01:31:36;20.00;;;11.67;;
71836;SDS011;59686;51.716;7.016;2024-01-15T01:34:08;19.80;;;11.20;;
71836;SDS011;59686;51.716;7.016;2024-01-15T01:36:33;17.93;;;10.77;;
71836;SDS011;59686;51.716;7.016;2024-01-15T01:38:59;19.03;;;11.37;;
71836;SDS011;59686;51.716;7.016;2024-01-15T01:41:25;18.93;;;10.90;;
71836;SDS011;59686;51.716;7.016;2024-01-15T01:43:50;17.13;;;11.00;;
71836;SDS011;59686;51.716;7.016;2024-01-15T01:46:16;20.27;;;11.03;;
71836;SDS011;59686;51.716;7.016;2024-01-15T01:48:43;18.77;;;10.77;;
71836;SDS011;59686;51.716;7.016;2024-01-15T01:51:09;15.60;;;9.43;;
71836;SDS011;59686;51.716;7.016;2024-01-15T01:53:36;15.03;;;9.53;;
71836;SDS011;59686;51.716;7.016;2024-01-15T01:56:03;16.00;;;9.57;;
71836;SDS011;59686;51.716;7.016;2024-01-15T01:58:29;16.93;;;9.90;;
71836;SDS011;59686;51.716;7.016;2024-01-15T02:00:58;15.83;;;9.87;;
71836;SDS011;59686;51.716;7.016;2024-01-15T02:03:25;16.40;;;9.93;;
71836;SDS011;59686;51.716;7.016;2024-01-15T02:05:52;15.63;;;8.83;;
71836;SDS011;59686;51.716;7.016;2024-01-15T02:08:35;16.97;;;9.13;;
71836;SDS011;59686;51.716;7.016;2024-01-15T02:11:01;16.37;;;9.33;;
71836;SDS011;59686;51.716;7.016;2024-01-15T02:13:27;12.80;;;8.60;;
71836;SDS011;59686;51.716;7.016;2024-01-15T02:15:53;13.70;;;8.17;;
71836;SDS011;59686;51.716;7.016;2024-01-15T02:18:18;13.87;;;8.50;;
71836;SDS011;59686;51.716;7.016;2024-01-15T02:20:45;16.47;;;8.13;;
71836;SDS011;59686;51.716;7.016;2024-01-15T02:23:14;11.73;;;7.73;;
71836;SDS011;59686;51.716;7.016;2024-01-15T02:25:41;12.93;;;8.33;;
71836;SDS011;59686;51.716;7.016;2024-01-15T02:28:10;12.37;;;7.77;;
71836;SDS011;59686;51.716;7.016;2024-01-15T02:30:37;15.27;;;7.63;;
71836;SDS011;59686;51.716;7.016;2024-01-15T02:33:05;11.47;;;7.50;;
71836;SDS011;59686;51.716;7.016;2024-01-15T02:35:34;12.87;;;7.50;;
71836;SDS011;59686;51.716;7.016;2024-01-15T02:38:04;14.97;;;8.13;;
71836;SDS011;59686;51.716;7.016;2024-01-15T02:40:30;12.83;;;7.97;;
71836;SDS011;59686;51.716;7.016;2024-01-15T02:42:56;13.80;;;7.50;;
71836;SDS011;59686;51.716;7.016;2024-01-15T02:45:22;12.63;;;7.07;;
71836;SDS011;59686;51.716;7.016;2024-01-15T02:47:48;11.13;;;6.87;;
71836;SDS011;59686;51.716;7.016;2024-01-15T02:50:14;11.07;;;7.07;;
71836;SDS011;59686;51.716;7.016;2024-01-15T02:52:41;12.70;;;6.60;;
71836;SDS011;59686;51.716;7.016;2024-01-15T02:55:07;11.47;;;7.13;;
71836;SDS011;59686;51.716;7.016;2024-01-15T02:57:32;10.83;;;6.67;;
71836;SDS011;59686;51.716;7.016;2024-01-15T02:59:58;11.20;;;6.77;;
71836;SDS011;59686;51.716;7.016;2024-01-15T03:02:24;12.70;;;6.53;;
71836;SDS011;59686;51.716;7.016;2024-01-15T03:04:50;11.40;;;7.17;;
71836;SDS011;59686;51.716;7.016;2024-01-15T03:07:15;10.53;;;6.97;;
71836;SDS011;59686;51.716;7.016;2024-01-15T03:09:42;11.60;;;6.63;;
71836;SDS011;59686;51.716;7.016;2024-01-15T03:12:08;11.23;;;7.43;;
71836;SDS011;59686;51.716;7.016;2024-01-15T03:14:34;12.23;;;7.13;;
71836;SDS011;59686;51.716;7.016;2024-01-15T03:17:00;11.60;;;7.27;;
71836;SDS011;59686;51.716;7.016;2024-01-15T03:19:26;10.60;;;6.53;;
71836;SDS011;59686;51.716;7.016;2024-01-15T03:21:52;8.90;;;6.70;;
71836;SDS011;59686;51.716;7.016;2024-01-15T03:24:20;13.33;;;6.53;;
71836;SDS011;59686;51.716;7.016;2024-01-15T03:26:45;12.33;;;7.37;;
71836;SDS011;59686;51.716;7.016;2024-01-15T03:29:11;11.57;;;6.97;;
71836;SDS011;59686;51.716;7.016;2024-01-15T03:31:37;12.13;;;7.53;;
71836;SDS011;59686;51.716;7.016;2024-01-15T03:34:02;9.07;;;6.90;;
71836;SDS011;59686;51.716;7.016;2024-01-15T03:36:28;9.53;;;7.00;;
71836;SDS011;59686;51.716;7.016;2024-01-15T03:38:54;11.00;;;7.07;;
71836;SDS011;59686;51.716;7.016;2024-01-15T03:43:51;11.23;;;6.73;;
71836;SDS011;59686;51.716;7.016;2024-01-15T03:46:16;11.97;;;6.80;;
71836;SDS011;59686;51.716;7.016;2024-01-15T03:48:42;12.80;;;7.63;;
71836;SDS011;59686;51.716;7.016;2024-01-15T03:51:07;10.93;;;7.27;;
71836;SDS011;59686;51.716;7.016;2024-01-15T03:53:33;10.77;;;6.90;;
71836;SDS011;59686;51.716;7.016;2024-01-15T03:55:59;11.83;;;7.13;;
71836;SDS011;59686;51.716;7.016;2024-01-15T03:58:24;11.80;;;7.20;;
71836;SDS011;59686;51.716;7.016;2024-01-15T04:00:50;13.50;;;7.57;;
71836;SDS011;59686;51.716;7.016;2024-01-15T04:03:16;11.30;;;6.37;;
71836;SDS011;59686;51.716;7.016;2024-01-15T04:05:42;12.00;;;6.83;;
71836;SDS011;59686;51.716;7.016;2024-01-15T04:08:07;13.40;;;7.27;;
71836;SDS011;59686;51.716;7.016;2024-01-15T04:10:33;10.90;;;7.00;;
71836;SDS011;59686;51.716;7.016;2024-01-15T04:12:59;15.40;;;7.07;;
71836;SDS011;59686;51.716;7.016;2024-01-15T04:15:26;16.90;;;7.43;;
71836;SDS011;59686;51.716;7.016;2024-01-15T04:17:52;11.33;;;6.53;;
71836;SDS011;59686;51.716;7.016;2024-01-15T04:20:18;10.47;;;6.63;;
71836;SDS011;59686;51.716;7.016;2024-01-15T04:22:43;12.07;;;6.37;;
71836;SDS011;59686;51.716;7.016;2024-01-15T04:25:09;10.53;;;6.20;;
71836;SDS011;59686;51.716;7.016;2024-01-15T04:27:35;10.90;;;6.57;;
71836;SDS011;59686;51.716;7.016;2024-01-15T04:30:00;10.50;;;6.10;;
71836;SDS011;59686;51.716;7.016;2024-01-15T04:32:26;13.20;;;6.50;;
71836;SDS011;59686;51.716;7.016;2024-01-15T04:34:52;11.73;;;6.10;;
71836;SDS011;59686;51.716;7.016;2024-01-15T04:37:18;10.33;;;6.17;;
71836;SDS011;59686;51.716;7.016;2024-01-15T04:39:43;7.73;;;5.27;;
71836;SDS011;59686;51.716;7.016;2024-01-15T04:42:09;9.43;;;5.80;;
71836;SDS011;59686;51.716;7.016;2024-01-15T04:44:35;9.50;;;5.37;;
71836;SDS011;59686;51.716;7.016;2024-01-15T04:47:01;12.77;;;5.67;;
71836;SDS011;59686;51.716;7.016;2024-01-15T04:49:26;9.57;;;5.27;;
71836;SDS011;59686;51.716;7.016;2024-01-15T04:51:54;7.53;;;5.00;;
71836;SDS011;59686;51.716;7.016;2024-01-15T04:54:20;8.50;;;4.87;;
71836;SDS011;59686;51.716;7.016;2024-01-15T04:56:46;9.70;;;5.03;;
71836;SDS011;59686;51.716;7.016;2024-01-15T04:59:11;6.87;;;4.60;;
71836;SDS011;59686;51.716;7.016;2024-01-15T05:01:39;7.80;;;4.63;;
71836;SDS011;59686;51.716;7.016;2024-01-15T05:04:05;7.20;;;4.80;;
71836;SDS011;59686;51.716;7.016;2024-01-15T05:06:30;7.93;;;4.50;;
71836;SDS011;59686;51.716;7.016;2024-01-15T05:08:56;7.77;;;4.90;;
71836;SDS011;59686;51.716;7.016;2024-01-15T05:11:22;5.80;;;4.10;;
71836;SDS011;59686;51.716;7.016;2024-01-15T05:13:48;7.10;;;4.23;;
71836;SDS011;59686;51.716;7.016;2024-01-15T05:16:14;8.83;;;4.30;;
71836;SDS011;59686;51.716;7.016;2024-01-15T05:18:39;7.37;;;4.43;;
71836;SDS011;59686;51.716;7.016;2024-01-15T05:21:05;7.67;;;4.40;;
71836;SDS011;59686;51.716;7.016;2024-01-15T05:23:31;10.03;;;4.50;;
71836;SDS011;59686;51.716;7.016;2024-01-15T05:25:57;6.57;;;4.50;;
71836;SDS011;59686;51.716;7.016;2024-01-15T05:28:23;8.10;;;4.63;;
71836;SDS011;59686;51.716;7.016;2024-01-15T05:30:48;5.93;;;4.27;;
71836;SDS011;59686;51.716;7.016;2024-01-15T05:33:15;7.03;;;4.30;;
71836;SDS011;59686;51.716;7.016;2024-01-15T05:35:41;9.07;;;5.23;;
71836;SDS011;59686;51.716;7.016;2024-01-15T05:38:07;6.77;;;4.77;;
71836;SDS011;59686;51.716;7.016;2024-01-15T05:40:33;9.00;;;4.80;;
71836;SDS011;59686;51.716;7.016;2024-01-15T05:43:03;9.47;;;5.00;;
71836;SDS011;59686;51.716;7.016;2024-01-15T05:45:29;7.60;;;4.73;;
71836;SDS011;59686;51.716;7.016;2024-01-15T05:47:56;7.00;;;4.83;;
71836;SDS011;59686;51.716;7.016;2024-01-15T05:50:22;8.40;;;5.07;;
71836;SDS011;59686;51.716;7.016;2024-01-15T05:52:48;10.23;;;5.13;;
71836;SDS011;59686;51.716;7.016;2024-01-15T05:55:14;10.50;;;4.87;;
71836;SDS011;59686;51.716;7.016;2024-01-15T05:57:40;8.90;;;4.70;;
71836;SDS011;59686;51.716;7.016;2024-01-15T06:00:06;10.00;;;4.87;;
71836;SDS011;59686;51.716;7.016;2024-01-15T06:02:33;7.50;;;4.43;;
71836;SDS011;59686;51.716;7.016;2024-01-15T06:04:59;6.03;;;5.00;;
71836;SDS011;59686;51.716;7.016;2024-01-15T06:07:26;7.20;;;4.30;;
71836;SDS011;59686;51.716;7.016;2024-01-15T06:09:52;9.27;;;5.03;;
71836;SDS011;59686;51.716;7.016;2024-01-15T06:12:18;7.50;;;4.50;;
71836;SDS011;59686;51.716;7.016;2024-01-15T06:14:43;6.90;;;4.70;;
71836;SDS011;59686;51.716;7.016;2024-01-15T06:17:09;7.57;;;4.40;;
71836;SDS011;59686;51.716;7.016;2024-01-15T06:19:35;7.60;;;4.80;;
71836;SDS011;59686;51.716;7.016;2024-01-15T06:22:01;6.63;;;4.10;;
71836;SDS011;59686;51.716;7.016;2024-01-15T06:24:27;7.57;;;4.53;;
71836;SDS011;59686;51.716;7.016;2024-01-15T06:26:53;6.70;;;4.57;;
71836;SDS011;59686;51.716;7.016;2024-01-15T06:29:18;8.00;;;4.20;;
71836;SDS011;59686;51.716;7.016;2024-01-15T06:31:44;7.53;;;4.50;;
71836;SDS011;59686;51.716;7.016;2024-01-15T06:34:10;7.03;;;4.40;;
71836;SDS011;59686;51.716;7.016;2024-01-15T06:36:35;7.93;;;4.87;;
71836;SDS011;59686;51.716;7.016;2024-01-15T06:39:01;8.37;;;4.50;;
71836;SDS011;59686;51.716;7.016;2024-01-15T06:41:27;8.90;;;5.27;;
71836;SDS011;59686;51.716;7.016;2024-01-15T06:43:53;7.60;;;5.03;;
71836;SDS011;59686;51.716;7.016;2024-01-15T06:46:19;9.90;;;5.03;;
71836;SDS011;59686;51.716;7.016;2024-01-15T06:48:46;7.47;;;4.67;;
71836;SDS011;59686;51.716;7.016;2024-01-15T06:51:12;6.27;;;3.90;;
71836;SDS011;59686;51.716;7.016;2024-01-15T06:53:40;6.20;;;4.60;;
71836;SDS011;59686;51.716;7.016;2024-01-15T06:56:05;8.30;;;4.60;;
71836;SDS011;59686;51.716;7.016;2024-01-15T06:58:31;6.97;;;3.77;;
71836;SDS011;59686;51.716;7.016;2024-01-15T07:00:57;5.17;;;3.97;;
71836;SDS011;59686;51.716;7.016;2024-01-15T07:03:23;7.27;;;4.13;;
71836;SDS011;59686;51.716;7.016;2024-01-15T07:05:48;5.83;;;3.77;;
71836;SDS011;59686;51.716;7.016;2024-01-15T07:08:14;5.63;;;3.67;;
71836;SDS011;59686;51.716;7.016;2024-01-15T07:10:40;4.37;;;3.60;;
71836;SDS011;59686;51.716;7.016;2024-01-15T07:13:05;4.70;;;3.30;;
71836;SDS011;59686;51.716;7.016;2024-01-15T07:15:31;8.17;;;3.50;;
71836;SDS011;59686;51.716;7.016;2024-01-15T07:17:57;6.50;;;3.10;;
71836;SDS011;59686;51.716;7.016;2024-01-15T07:20:24;6.80;;;3.60;;
71836;SDS011;59686;51.716;7.016;2024-01-15T07:22:49;6.17;;;3.57;;
71836;SDS011;59686;51.716;7.016;2024-01-15T07:25:15;5.13;;;3.27;;
71836;SDS011;59686;51.716;7.016;2024-01-15T07:27:41;5.60;;;3.23;;
71836;SDS011;59686;51.716;7.016;2024-01-15T07:30:09;8.43;;;3.17;;
71836;SDS011;59686;51.716;7.016;2024-01-15T07:32:38;5.47;;;2.70;;
71836;SDS011;59686;51.716;7.016;2024-01-15T07:35:04;3.77;;;3.20;;
71836;SDS011;59686;51.716;7.016;2024-01-15T07:37:49;5.67;;;3.10;;
71836;SDS011;59686;51.716;7.016;2024-01-15T07:40:14;5.67;;;2.67;;
71836;SDS011;59686;51.716;7.016;2024-01-15T07:42:41;3.57;;;2.50;;
71836;SDS011;59686;51.716;7.016;2024-01-15T07:45:08;3.67;;;2.50;;
71836;SDS011;59686;51.716;7.016;2024-01-15T07:47:34;4.33;;;2.53;;
71836;SDS011;59686;51.716;7.016;2024-01-15T07:50:00;4.47;;;2.33;;
71836;SDS011;59686;51.716;7.016;2024-01-15T07:52:25;4.57;;;2.60;;
71836;SDS011;59686;51.716;7.016;2024-01-15T07:54:51;5.10;;;2.50;;
71836;SDS011;59686;51.716;7.016;2024-01-15T07:57:17;4.20;;;2.53;;
71836;SDS011;59686;51.716;7.016;2024-01-15T07:59:43;4.87;;;2.40;;
71836;SDS011;59686;51.716;7.016;2024-01-15T08:02:08;2.90;;;2.10;;
71836;SDS011;59686;51.716;7.016;2024-01-15T08:04:36;2.63;;;2.20;;
71836;SDS011;59686;51.716;7.016;2024-01-15T08:07:02;4.27;;;2.50;;
71836;SDS011;59686;51.716;7.016;2024-01-15T08:09:28;4.40;;;2.30;;
71836;SDS011;59686;51.716;7.016;2024-01-15T08:11:54;3.17;;;2.43;;
71836;SDS011;59686;51.716;7.016;2024-01-15T08:14:20;3.70;;;2.37;;
71836;SDS011;59686;51.716;7.016;2024-01-15T08:16:45;4.63;;;2.53;;
71836;SDS011;59686;51.716;7.016;2024-01-15T08:19:11;4.77;;;2.53;;
71836;SDS011;59686;51.716;7.016;2024-01-15T08:21:37;4.03;;;2.37;;
71836;SDS011;59686;51.716;7.016;2024-01-15T08:24:02;4.63;;;2.43;;
71836;SDS011;59686;51.716;7.016;2024-01-15T08:26:29;4.07;;;2.50;;
71836;SDS011;59686;51.716;7.016;2024-01-15T08:28:55;2.90;;;2.30;;
71836;SDS011;59686;51.716;7.016;2024-01-15T08:31:21;2.67;;;2.40;;
71836;SDS011;59686;51.716;7.016;2024-01-15T08:33:47;2.93;;;2.47;;
71836;SDS011;59686;51.716;7.016;2024-01-15T08:36:13;2.83;;;2.40;;
71836;SDS011;59686;51.716;7.016;2024-01-15T08:38:39;2.90;;;2.60;;
71836;SDS011;59686;51.716;7.016;2024-01-15T08:41:04;4.17;;;2.60;;
71836;SDS011;59686;51.716;7.016;2024-01-15T08:43:35;5.30;;;2.63;;
71836;SDS011;59686;51.716;7.016;2024-01-15T08:46:01;3.83;;;2.60;;
71836;SDS011;59686;51.716;7.016;2024-01-15T08:48:27;3.57;;;2.30;;
71836;SDS011;59686;51.716;7.016;2024-01-15T08:50:53;5.70;;;2.40;;
71836;SDS011;59686;51.716;7.016;2024-01-15T08:53:19;5.87;;;2.70;;
71836;SDS011;59686;51.716;7.016;2024-01-15T08:55:45;3.73;;;2.47;;
71836;SDS011;59686;51.716;7.016;2024-01-15T08:58:11;2.77;;;2.20;;
71836;SDS011;59686;51.716;7.016;2024-01-15T09:00:45;2.93;;;2.23;;
71836;SDS011;59686;51.716;7.016;2024-01-15T09:03:10;3.87;;;2.13;;
71836;SDS011;59686;51.716;7.016;2024-01-15T09:05:36;3.57;;;2.50;;
71836;SDS011;59686;51.716;7.016;2024-01-15T09:08:02;4.10;;;2.57;;
71836;SDS011;59686;51.716;7.016;2024-01-15T09:10:28;2.50;;;2.30;;
71836;SDS011;59686;51.716;7.016;2024-01-15T09:12:54;2.30;;;2.10;;
71836;SDS011;59686;51.716;7.016;2024-01-15T09:15:22;3.07;;;2.03;;
71836;SDS011;59686;51.716;7.016;2024-01-15T09:17:48;3.07;;;2.00;;
71836;SDS011;59686;51.716;7.016;2024-01-15T09:20:14;2.50;;;2.13;;
71836;SDS011;59686;51.716;7.016;2024-01-15T09:22:40;4.43;;;2.40;;
71836;SDS011;59686;51.716;7.016;2024-01-15T09:25:07;2.50;;;2.10;;
71836;SDS011;59686;51.716;7.016;2024-01-15T09:27:36;2.60;;;2.20;;
71836;SDS011;59686;51.716;7.016;2024-01-15T09:30:03;2.67;;;2.00;;
71836;SDS011;59686;51.716;7.016;2024-01-15T09:32:30;3.33;;;2.37;;
71836;SDS011;59686;51.716;7.016;2024-01-15T09:34:55;2.90;;;2.60;;
71836;SDS011;59686;51.716;7.016;2024-01-15T09:37:21;3.07;;;2.30;;
71836;SDS011;59686;51.716;7.016;2024-01-15T09:39:48;3.23;;;2.33;;
71836;SDS011;59686;51.716;7.016;2024-01-15T09:42:15;3.13;;;2.27;;
71836;SDS011;59686;51.716;7.016;2024-01-15T09:44:48;3.50;;;2.30;;
71836;SDS011;59686;51.716;7.016;2024-01-15T09:47:13;3.47;;;2.20;;
71836;SDS011;59686;51.716;7.016;2024-01-15T09:49:41;2.23;;;1.90;;
71836;SDS011;59686;51.716;7.016;2024-01-15T09:52:07;2.37;;;1.83;;
71836;SDS011;59686;51.716;7.016;2024-01-15T09:54:33;1.83;;;1.73;;
71836;SDS011;59686;51.716;7.016;2024-01-15T09:57:00;2.03;;;1.77;;
71836;SDS011;59686;51.716;7.016;2024-01-15T09:59:26;2.03;;;1.77;;
71836;SDS011;59686;51.716;7.016;2024-01-15T10:01:53;2.03;;;1.80;;
71836;SDS011;59686;51.716;7.016;2024-01-15T10:04:20;1.70;;;1.60;;
71836;SDS011;59686;51.716;7.016;2024-01-15T10:06:46;2.10;;;1.90;;
71836;SDS011;59686;51.716;7.016;2024-01-15T10:09:15;2.07;;;1.57;;
71836;SDS011;59686;51.716;7.016;2024-01-15T10:11:43;3.47;;;2.10;;
71836;SDS011;59686;51.716;7.016;2024-01-15T10:14:09;2.87;;;2.30;;
71836;SDS011;59686;51.716;7.016;2024-01-15T10:16:39;4.87;;;1.73;;
71836;SDS011;59686;51.716;7.016;2024-01-15T10:19:07;1.93;;;1.70;;
71836;SDS011;59686;51.716;7.016;2024-01-15T10:21:33;2.23;;;1.90;;
71836;SDS011;59686;51.716;7.016;2024-01-15T10:24:03;2.10;;;1.90;;
71836;SDS011;59686;51.716;7.016;2024-01-15T10:26:29;3.20;;;2.17;;
71836;SDS011;59686;51.716;7.016;2024-01-15T10:28:56;2.83;;;2.13;;
71836;SDS011;59686;51.716;7.016;2024-01-15T10:31:23;2.77;;;1.93;;
71836;SDS011;59686;51.716;7.016;2024-01-15T10:33:50;3.30;;;2.17;;
71836;SDS011;59686;51.716;7.016;2024-01-15T10:36:16;3.23;;;2.00;;
71836;SDS011;59686;51.716;7.016;2024-01-15T10:38:43;3.27;;;2.37;;
71836;SDS011;59686;51.716;7.016;2024-01-15T10:41:09;3.10;;;2.10;;
71836;SDS011;59686;51.716;7.016;2024-01-15T10:43:35;4.03;;;2.40;;
71836;SDS011;59686;51.716;7.016;2024-01-15T10:46:01;4.03;;;2.53;;
71836;SDS011;59686;51.716;7.016;2024-01-15T10:48:27;3.07;;;2.50;;
71836;SDS011;59686;51.716;7.016;2024-01-15T10:50:56;4.30;;;2.53;;
71836;SDS011;59686;51.716;7.016;2024-01-15T10:53:24;7.37;;;2.60;;
71836;SDS011;59686;51.716;7.016;2024-01-15T10:55:56;3.30;;;2.63;;
71836;SDS011;59686;51.716;7.016;2024-01-15T10:58:22;3.17;;;2.87;;
71836;SDS011;59686;51.716;7.016;2024-01-15T11:00:49;3.93;;;2.33;;
71836;SDS011;59686;51.716;7.016;2024-01-15T11:03:15;3.00;;;2.43;;
71836;SDS011;59686;51.716;7.016;2024-01-15T11:05:43;6.63;;;2.67;;
71836;SDS011;59686;51.716;7.016;2024-01-15T11:08:09;3.87;;;2.23;;
71836;SDS011;59686;51.716;7.016;2024-01-15T11:10:44;5.57;;;2.60;;
71836;SDS011;59686;51.716;7.016;2024-01-15T11:18:23;3.77;;;2.57;;
71836;SDS011;59686;51.716;7.016;2024-01-15T11:23:49;3.50;;;2.00;;
71836;SDS011;59686;51.716;7.016;2024-01-15T11:28:55;3.63;;;1.70;;
71836;SDS011;59686;51.716;7.016;2024-01-15T11:34:10;2.33;;;1.60;;
71836;SDS011;59686;51.716;7.016;2024-01-15T11:41:57;3.93;;;1.70;;
71836;SDS011;59686;51.716;7.016;2024-01-15T11:44:29;1.93;;;1.23;;
71836;SDS011;59686;51.716;7.016;2024-01-15T11:47:11;2.77;;;1.50;;
71836;SDS011;59686;51.716;7.016;2024-01-15T11:52:32;5.37;;;1.70;;
71836;SDS011;59686;51.716;7.016;2024-01-15T11:55:07;6.80;;;1.97;;
71836;SDS011;59686;51.716;7.016;2024-01-15T11:57:51;3.93;;;1.50;;
71836;SDS011;59686;51.716;7.016;2024-01-15T12:00:19;3.00;;;1.50;;
71836;SDS011;59686;51.716;7.016;2024-01-15T12:02:47;1.80;;;1.37;;
71836;SDS011;59686;51.716;7.016;2024-01-15T12:05:14;5.60;;;1.90;;
71836;SDS011;59686;51.716;7.016;2024-01-15T12:07:42;6.57;;;1.80;;
71836;SDS011;59686;51.716;7.016;2024-01-15T12:13:00;3.37;;;1.60;;
71836;SDS011;59686;51.716;7.016;2024-01-15T12:15:30;2.60;;;2.07;;
71836;SDS011;59686;51.716;7.016;2024-01-15T12:17:57;5.00;;;2.00;;
71836;SDS011;59686;51.716;7.016;2024-01-15T12:20:24;3.87;;;1.83;;
71836;SDS011;59686;51.716;7.016;2024-01-15T12:22:51;4.00;;;2.17;;
71836;SDS011;59686;51.716;7.016;2024-01-15T12:25:17;4.67;;;2.47;;
71836;SDS011;59686;51.716;7.016;2024-01-15T12:27:42;3.37;;;2.30;;
71836;SDS011;59686;51.716;7.016;2024-01-15T12:30:12;4.47;;;2.30;;
71836;SDS011;59686;51.716;7.016;2024-01-15T12:32:41;5.07;;;2.47;;
71836;SDS011;59686;51.716;7.016;2024-01-15T12:35:07;4.43;;;2.40;;
71836;SDS011;59686;51.716;7.016;2024-01-15T12:37:37;5.70;;;2.30;;
71836;SDS011;59686;51.716;7.016;2024-01-15T12:40:04;3.07;;;2.17;;
71836;SDS011;59686;51.716;7.016;2024-01-15T12:42:50;3.07;;;1.90;;
71836;SDS011;59686;51.716;7.016;2024-01-15T12:45:15;4.90;;;2.20;;
71836;SDS011;59686;51.716;7.016;2024-01-15T12:47:42;3.93;;;2.10;;
71836;SDS011;59686;51.716;7.016;2024-01-15T12:50:08;3.97;;;1.90;;
71836;SDS011;59686;51.716;7.016;2024-01-15T12:52:35;5.47;;;1.97;;
71836;SDS011;59686;51.716;7.016;2024-01-15T12:55:03;2.07;;;1.77;;
71836;SDS011;59686;51.716;7.016;2024-01-15T12:57:30;3.43;;;1.90;;
71836;SDS011;59686;51.716;7.016;2024-01-15T12:59:56;4.80;;;1.80;;
71836;SDS011;59686;51.716;7.016;2024-01-15T13:02:21;4.30;;;1.70;;
71836;SDS011;59686;51.716;7.016;2024-01-15T13:04:47;2.73;;;1.77;;
71836;SDS011;59686;51.716;7.016;2024-01-15T13:07:13;3.87;;;1.80;;
71836;SDS011;59686;51.716;7.016;2024-01-15T13:09:38;2.93;;;1.60;;
71836;SDS011;59686;51.716;7.016;2024-01-15T13:12:04;1.57;;;1.47;;
71836;SDS011;59686;51.716;7.016;2024-01-15T13:14:30;2.83;;;1.57;;
71836;SDS011;59686;51.716;7.016;2024-01-15T13:16:57;4.13;;;1.77;;
71836;SDS011;59686;51.716;7.016;2024-01-15T13:19:37;2.83;;;1.40;;
71836;SDS011;59686;51.716;7.016;2024-01-15T13:22:04;2.77;;;1.40;;
71836;SDS011;59686;51.716;7.016;2024-01-15T13:24:32;3.77;;;1.80;;
71836;SDS011;59686;51.716;7.016;2024-01-15T13:26:57;5.13;;;1.50;;
71836;SDS011;59686;51.716;7.016;2024-01-15T13:29:23;5.33;;;1.57;;
71836;SDS011;59686;51.716;7.016;2024-01-15T13:31:48;4.53;;;1.60;;
71836;SDS011;59686;51.716;7.016;2024-01-15T13:34:14;3.60;;;1.50;;
71836;SDS011;59686;51.716;7.016;2024-01-15T13:36:40;3.50;;;2.03;;
71836;SDS011;59686;51.716;7.016;2024-01-15T13:39:06;3.87;;;2.03;;
71836;SDS011;59686;51.716;7.016;2024-01-15T13:41:35;3.83;;;1.90;;
71836;SDS011;59686;51.716;7.016;2024-01-15T13:44:01;4.07;;;1.80;;
71836;SDS011;59686;51.716;7.016;2024-01-15T13:46:27;4.43;;;1.83;;
71836;SDS011;59686;51.716;7.016;2024-01-15T13:48:54;4.27;;;1.80;;
71836;SDS011;59686;51.716;7.016;2024-01-15T13:51:23;3.97;;;1.87;;
71836;SDS011;59686;51.716;7.016;2024-01-15T13:53:50;4.87;;;1.60;;
71836;SDS011;59686;51.716;7.016;2024-01-15T13:56:16;4.57;;;1.60;;
71836;SDS011;59686;51.716;7.016;2024-01-15T13:58:42;4.43;;;1.67;;
71836;SDS011;59686;51.716;7.016;2024-01-15T14:01:08;3.57;;;1.50;;
71836;SDS011;59686;51.716;7.016;2024-01-15T14:03:34;3.37;;;1.20;;
71836;SDS011;59686;51.716;7.016;2024-01-15T14:06:00;1.30;;;1.17;;
71836;SDS011;59686;51.716;7.016;2024-01-15T14:08:28;4.37;;;1.40;;
71836;SDS011;59686;51.716;7.016;2024-01-15T14:10:53;5.27;;;1.60;;
71836;SDS011;59686;51.716;7.016;2024-01-15T14:13:21;3.20;;;1.17;;
71836;SDS011;59686;51.716;7.016;2024-01-15T14:15:47;2.73;;;1.30;;
71836;SDS011;59686;51.716;7.016;2024-01-15T14:18:15;2.03;;;1.10;;
71836;SDS011;59686;51.716;7.016;2024-01-15T14:20:42;3.80;;;1.20;;
71836;SDS011;59686;51.716;7.016;2024-01-15T14:23:08;2.13;;;1.17;;
71836;SDS011;59686;51.716;7.016;2024-01-15T14:25:34;2.30;;;1.20;;
71836;SDS011;59686;51.716;7.016;2024-01-15T14:27:59;2.33;;;1.20;;
71836;SDS011;59686;51.716;7.016;2024-01-15T14:30:25;4.83;;;1.30;;
71836;SDS011;59686;51.716;7.016;2024-01-15T14:32:51;2.00;;;1.00;;
71836;SDS011;59686;51.716;7.016;2024-01-15T14:35:16;1.83;;;1.13;;
71836;SDS011;59686;51.716;7.016;2024-01-15T14:37:42;2.30;;;1.10;;
71836;SDS011;59686;51.716;7.016;2024-01-15T14:40:08;1.80;;;0.93;;
71836;SDS011;59686;51.716;7.016;2024-01-15T14:42:35;2.63;;;1.10;;
71836;SDS011;59686;51.716;7.016;2024-01-15T14:45:01;4.43;;;1.10;;
71836;SDS011;59686;51.716;7.016;2024-01-15T14:47:28;2.53;;;1.10;;
71836;SDS011;59686;51.716;7.016;2024-01-15T14:49:54;2.20;;;1.10;;
71836;SDS011;59686;51.716;7.016;2024-01-15T14:52:21;4.00;;;1.40;;
71836;SDS011;59686;51.716;7.016;2024-01-15T14:54:47;2.30;;;1.10;;
71836;SDS011;59686;51.716;7.016;2024-01-15T14:57:13;4.80;;;1.30;;
71836;SDS011;59686;51.716;7.016;2024-01-15T14:59:38;1.27;;;1.10;;
71836;SDS011;59686;51.716;7.016;2024-01-15T15:02:06;2.93;;;1.10;;
71836;SDS011;59686;51.716;7.016;2024-01-15T15:04:32;2.30;;;1.13;;
71836;SDS011;59686;51.716;7.016;2024-01-15T15:06:58;2.73;;;1.00;;